Time;durP1;ratioP1;P1;durP2;ratioP2;P2;SDS_P1;SDS_P2;PMS_P1;PMS_P2;Temp;Humidity;BMP_temperature;BMP_pressure;BME280_temperature;BME280_humidity;BME280_pressure;Samples;Min_cycle;Max_cycle;Signal;HPM_P1;HPM_P2
2021/05/11 00:00:38;;;;;;;4.60;1.95;;;;;;;15.39;42.06;94957.50;2975005;39;20048;-82
2021/05/11 00:02:39;;;;;;;3.38;2.00;;;;;;;15.35;42.15;94951.75;2972761;39;20285;-81
2021/05/11 00:04:41;;;;;;;4.85;1.90;;;;;;;15.34;42.15;94952.78;2968276;40;20102;-83
2021/05/11 00:06:42;;;;;;;4.03;1.90;;;;;;;15.34;41.95;94955.41;2972879;39;20063;-81
2021/05/11 00:08:44;;;;;;;3.30;2.20;;;;;;;15.34;42.69;94952.78;2977188;39;20420;-81
2021/05/11 00:10:46;;;;;;;4.95;3.00;;;;;;;15.32;42.42;94949.50;2970581;39;20126;-81
2021/05/11 00:12:47;;;;;;;6.60;3.20;;;;;;;15.27;42.54;94955.34;2975737;39;20059;-80
2021/05/11 00:14:48;;;;;;;7.50;2.92;;;;;;;15.22;42.93;94959.50;2976489;39;20052;-81
2021/05/11 00:16:49;;;;;;;6.50;3.65;;;;;;;15.05;43.01;94957.03;2973092;39;20051;-80
2021/05/11 00:18:51;;;;;;;7.85;2.90;;;;;;;14.86;42.85;94960.19;2968045;40;20078;-82
2021/05/11 00:20:53;;;;;;;7.38;3.42;;;;;;;14.83;43.52;94955.28;2967472;40;20136;-82
2021/05/11 00:22:54;;;;;;;4.30;2.60;;;;;;;14.81;43.90;94955.44;2973138;39;20380;-79
2021/05/11 00:24:55;;;;;;;11.32;4.03;;;;;;;14.81;43.78;94957.25;2969780;40;20100;-81
2021/05/11 00:26:56;;;;;;;4.72;2.80;;;;;;;14.79;43.59;94959.25;2967738;40;20148;-81
2021/05/11 00:28:58;;;;;;;4.63;2.97;;;;;;;14.81;43.93;94954.63;2966941;40;20048;-80
2021/05/11 00:30:59;;;;;;;3.08;2.40;;;;;;;14.82;43.51;94953.63;2967880;39;20059;-82
2021/05/11 00:33:01;;;;;;;4.22;2.63;;;;;;;14.78;43.60;94963.72;2967756;40;20048;-80
2021/05/11 00:35:02;;;;;;;4.55;2.63;;;;;;;14.71;43.84;94953.06;2968081;39;20052;-81
2021/05/11 00:37:03;;;;;;;3.30;2.67;;;;;;;14.72;43.84;94954.69;2968414;40;20439;-81
2021/05/11 00:39:05;;;;;;;3.45;2.30;;;;;;;14.64;44.01;94949.50;2973305;39;20047;-81
2021/05/11 00:41:06;;;;;;;4.25;2.88;;;;;;;14.59;44.15;94949.22;2976283;39;20392;-82
2021/05/11 00:43:07;;;;;;;4.25;2.42;;;;;;;14.52;44.03;94949.06;2968811;40;20064;-81
2021/05/11 00:45:09;;;;;;;4.65;2.85;;;;;;;14.51;44.53;94950.06;2967452;39;20055;-83
2021/05/11 00:47:10;;;;;;;6.55;2.90;;;;;;;14.48;45.00;94942.50;2972995;39;20142;-81
2021/05/11 00:49:11;;;;;;;5.55;3.08;;;;;;;14.39;47.18;94954.13;2969809;40;20059;-81
2021/05/11 00:51:13;;;;;;;6.68;2.92;;;;;;;14.23;47.55;94949.78;2968634;40;20074;-81
2021/05/11 00:53:14;;;;;;;3.13;2.53;;;;;;;14.19;47.57;94942.41;2972271;39;20083;-81
2021/05/11 00:55:15;;;;;;;4.47;2.90;;;;;;;14.06;48.32;94940.34;2972951;39;20056;-79
2021/05/11 00:57:17;;;;;;;5.75;3.35;;;;;;;13.97;46.82;94941.38;2980076;39;20099;-83
2021/05/11 00:59:22;;;;;;;5.05;3.08;;;;;;;13.87;48.35;94939.81;2967496;40;20516;-83
2021/05/11 01:01:24;;;;;;;3.10;2.33;;;;;;;13.82;46.74;94941.31;2967288;40;20140;-81
2021/05/11 01:03:25;;;;;;;3.13;2.22;;;;;;;13.75;46.41;94930.66;2967784;40;20056;-80
2021/05/11 01:05:26;;;;;;;3.65;2.28;;;;;;;13.70;46.89;94939.06;2974650;39;20059;-84
2021/05/11 01:07:28;;;;;;;3.42;2.08;;;;;;;13.65;46.99;94935.31;2967808;40;20070;-82
2021/05/11 01:09:30;;;;;;;4.50;2.10;;;;;;;13.68;46.64;94921.78;2969538;39;20100;-83
2021/05/11 01:11:32;;;;;;;4.47;2.58;;;;;;;13.77;47.12;94927.84;2976679;39;20096;-82
2021/05/11 01:13:33;;;;;;;5.47;2.22;;;;;;;13.85;46.63;94927.78;2972970;39;20066;-80
2021/05/11 01:15:36;;;;;;;3.17;2.40;;;;;;;13.90;46.31;94928.09;2975015;39;20087;-81
2021/05/11 01:17:38;;;;;;;4.47;2.27;;;;;;;13.99;46.04;94926.22;2973719;39;20060;-80
2021/05/11 01:21:59;;;;;;;4.43;2.75;;;;;;;13.90;46.39;94928.09;2968973;39;20060;-80
2021/05/11 01:26:10;;;;;;;5.15;2.42;;;;;;;13.99;46.45;94931.50;2968839;39;20103;-83
2021/05/11 01:48:11;;;;;;;5.82;2.97;;;;;;;12.87;52.07;94921.06;2976151;39;20156;-80
2021/05/11 02:24:17;;;;;;;6.53;3.20;;;;;;;13.73;50.25;94906.31;2969099;40;20059;-81
2021/05/11 02:26:18;;;;;;;6.03;3.13;;;;;;;13.70;50.50;94896.09;2971584;40;20052;-81
2021/05/11 02:28:20;;;;;;;7.40;3.70;;;;;;;13.70;50.49;94898.72;2978376;39;20048;-78
2021/05/11 02:30:21;;;;;;;7.68;3.35;;;;;;;13.68;50.35;94898.94;2973844;39;20060;-79
2021/05/11 02:32:22;;;;;;;7.88;3.90;;;;;;;13.73;50.48;94901.03;2971854;40;20052;-80
2021/05/11 02:34:24;;;;;;;5.85;3.53;;;;;;;13.69;50.63;94889.22;2973298;39;20055;-81
2021/05/11 02:36:25;;;;;;;5.00;3.33;;;;;;;13.72;50.50;94899.38;2976978;39;20431;-80
2021/05/11 02:38:26;;;;;;;7.22;3.40;;;;;;;13.72;51.01;94894.97;2979062;39;20076;-79
2021/05/11 02:40:28;;;;;;;5.75;3.35;;;;;;;13.70;50.97;94890.84;2970283;40;20504;-81
2021/05/11 02:42:30;;;;;;;8.13;3.13;;;;;;;13.72;50.61;94889.69;2975892;39;20067;-79
2021/05/11 02:44:39;;;;;;;5.45;3.75;;;;;;;13.75;50.46;94883.25;2971165;40;20048;-81
2021/05/11 02:46:40;;;;;;;8.25;3.65;;;;;;;13.71;50.54;94889.84;2968718;40;20048;-81
2021/05/11 02:48:41;;;;;;;7.22;3.60;;;;;;;13.75;50.75;94893.78;2975336;39;20044;-81
2021/05/11 02:50:42;;;;;;;6.10;3.90;;;;;;;13.66;50.70;94889.56;2969059;40;20167;-81
2021/05/11 02:52:44;;;;;;;9.73;3.85;;;;;;;13.61;50.83;94890.06;2970911;40;20044;-83
2021/05/11 02:54:45;;;;;;;5.68;3.40;;;;;;;13.55;50.90;94893.41;2974942;39;20416;-79
2021/05/11 02:56:47;;;;;;;5.25;3.35;;;;;;;13.49;51.10;94892.28;2972808;39;20323;-80
2021/05/11 02:58:50;;;;;;;5.68;3.90;;;;;;;13.51;50.84;94886.84;2971735;39;20060;-83
2021/05/11 03:00:51;;;;;;;6.55;3.67;;;;;;;13.47;51.33;94894.25;2969614;39;20041;-80
2021/05/11 03:02:53;;;;;;;5.20;3.50;;;;;;;13.04;51.94;94899.00;2973557;39;20060;-80
2021/05/11 03:04:55;;;;;;;6.18;3.83;;;;;;;12.55;53.11;94895.66;2970741;39;20304;-81
2021/05/11 03:06:57;;;;;;;6.97;3.63;;;;;;;12.47;53.64;94893.84;2974554;39;20052;-81
2021/05/11 03:08:59;;;;;;;5.22;3.08;;;;;;;12.62;52.77;94897.44;2966960;39;20338;-80
2021/05/11 03:11:00;;;;;;;5.35;3.40;;;;;;;12.79;52.57;94894.78;2974861;39;20432;-81
2021/05/11 03:13:01;;;;;;;8.88;4.20;;;;;;;12.95;52.12;94892.13;2969155;40;20052;-82
2021/05/11 03:15:04;;;;;;;7.70;3.85;;;;;;;13.03;52.11;94883.38;2974081;39;20137;-80
2021/05/11 03:17:05;;;;;;;5.03;3.28;;;;;;;13.10;51.83;94887.81;2974956;39;20128;-80
2021/05/11 03:19:07;;;;;;;6.43;3.55;;;;;;;13.14;51.82;94890.09;2970678;39;20060;-81
2021/05/11 03:21:08;;;;;;;7.00;3.90;;;;;;;13.19;51.99;94885.16;2974865;39;20060;-69
2021/05/11 03:23:10;;;;;;;6.88;3.65;;;;;;;13.25;51.36;94887.06;2972613;39;20059;-70
2021/05/11 03:25:11;;;;;;;7.65;3.28;;;;;;;13.25;51.42;94884.44;2972852;39;20060;-70
2021/05/11 03:27:14;;;;;;;5.32;3.22;;;;;;;13.26;51.65;94884.28;2966990;40;20152;-84
2021/05/11 03:29:16;;;;;;;15.63;4.23;;;;;;;13.28;51.63;94884.13;2967423;40;20438;-81
2021/05/11 03:31:17;;;;;;;5.15;3.10;;;;;;;12.60;53.32;94881.00;2968314;40;20291;-80
2021/05/11 03:33:18;;;;;;;9.85;3.75;;;;;;;12.38;54.38;94881.72;2974136;39;20080;-80
2021/05/11 03:35:19;;;;;;;7.63;3.65;;;;;;;12.53;53.72;94887.94;2969890;39;20072;-79
2021/05/11 03:37:21;;;;;;;10.05;3.55;;;;;;;12.65;53.39;94886.63;2976365;39;20059;-81
2021/05/11 03:39:22;;;;;;;6.25;3.42;;;;;;;12.85;52.81;94881.78;2972527;39;20100;-83
2021/05/11 03:41:27;;;;;;;5.88;3.92;;;;;;;12.96;52.21;94875.34;2971250;39;20055;-82
2021/05/11 03:43:48;;;;;;;6.40;4.00;;;;;;;13.08;52.21;94881.91;2977657;39;20064;-80
2021/05/11 03:45:54;;;;;;;6.65;4.00;;;;;;;13.04;51.99;94879.78;2970975;39;20068;-80
2021/05/11 03:47:56;;;;;;;7.07;4.13;;;;;;;12.20;54.23;94887.16;2968676;39;20055;-82
2021/05/11 03:49:58;;;;;;;10.45;4.22;;;;;;;11.91;55.06;94898.94;2968331;40;20060;-80
2021/05/11 03:52:00;;;;;;;12.60;4.70;;;;;;;11.55;56.69;94898.31;2974901;39;20048;-82
2021/05/11 03:54:03;;;;;;;7.88;4.40;;;;;;;11.63;56.28;94888.66;2976066;39;20063;-81
2021/05/11 03:56:05;;;;;;;8.10;4.38;;;;;;;11.54;56.48;94891.44;2969659;39;20056;-81
2021/05/11 03:58:07;;;;;;;6.75;4.55;;;;;;;11.54;56.74;94888.84;2974665;39;20691;-82
2021/05/11 04:00:09;;;;;;;7.20;4.60;;;;;;;11.44;57.11;94891.56;2972104;39;20110;-81
2021/05/11 04:02:11;;;;;;;8.47;4.97;;;;;;;11.26;57.58;94892.50;2970032;39;20162;-70
2021/05/11 04:04:14;;;;;;;9.68;4.85;;;;;;;11.41;56.73;94889.28;2965460;40;20152;-71
2021/05/11 04:06:15;;;;;;;9.38;4.40;;;;;;;11.25;57.02;94890.06;2971487;39;20056;-70
2021/05/11 04:08:33;;;;;;;7.22;3.78;;;;;;;11.45;56.94;94885.38;2971271;39;20052;-70
2021/05/11 04:10:40;;;;;;;12.23;4.63;;;;;;;11.44;56.76;94892.41;2967368;40;20060;-70
2021/05/11 04:13:31;;;;;;;7.18;3.70;;;;;;;11.70;56.41;94886.22;2969486;40;20683;-69
2021/05/11 04:17:31;;;;;;;10.25;4.07;;;;;;;11.70;55.24;94896.72;2967915;40;20088;-71
2021/05/11 04:19:34;;;;;;;5.55;3.95;;;;;;;11.71;55.37;94900.19;2966515;40;20085;-70
2021/05/11 04:21:36;;;;;;;7.00;4.25;;;;;;;11.81;55.08;94890.38;2972278;39;20437;-69
2021/05/11 04:23:38;;;;;;;7.43;3.63;;;;;;;11.83;54.23;94891.84;2965300;40;20053;-71
2021/05/11 04:25:40;;;;;;;11.02;3.67;;;;;;;12.07;53.76;94893.69;2967989;39;20064;-68
2021/05/11 04:27:41;;;;;;;8.80;4.13;;;;;;;12.33;52.76;94886.66;2969210;39;20075;-71
2021/05/11 04:29:44;;;;;;;12.57;4.28;;;;;;;12.37;52.75;94888.78;2966440;40;20413;-71
2021/05/11 04:31:46;;;;;;;10.85;3.78;;;;;;;12.49;52.51;94887.44;2969772;39;20405;-83
2021/05/11 04:33:48;;;;;;;10.07;3.85;;;;;;;12.49;52.47;94884.81;2974038;39;20554;-80
2021/05/11 04:35:49;;;;;;;9.13;3.83;;;;;;;12.53;52.50;94887.94;2971075;40;20056;-82
2021/05/11 04:37:51;;;;;;;7.28;3.03;;;;;;;12.70;51.30;94883.47;2976501;39;20059;-82
2021/05/11 04:39:54;;;;;;;6.47;3.70;;;;;;;12.93;51.71;94873.06;2972290;39;20450;-82
2021/05/11 04:41:55;;;;;;;7.65;3.50;;;;;;;13.18;50.68;94881.69;2973965;39;20092;-80
2021/05/11 04:44:00;;;;;;;6.07;3.40;;;;;;;13.36;50.01;94883.28;2972364;39;20327;-82
2021/05/11 04:48:08;;;;;;;8.43;3.63;;;;;;;13.67;48.83;94878.03;2972227;40;20044;-81
2021/05/11 04:50:10;;;;;;;6.68;3.58;;;;;;;13.78;48.68;94880.25;2967361;40;20100;-82
2021/05/11 04:52:12;;;;;;;7.88;3.80;;;;;;;13.86;48.26;94877.59;2975649;39;20118;-82
2021/05/11 04:54:14;;;;;;;8.25;3.60;;;;;;;13.63;48.79;94882.81;2969097;39;20056;-82
2021/05/11 04:56:16;;;;;;;10.05;4.78;;;;;;;13.18;49.75;94875.59;2970576;40;20067;-83
2021/05/11 04:58:18;;;;;;;10.48;3.45;;;;;;;13.04;50.19;94879.78;2967146;40;20060;-82
2021/05/11 05:00:20;;;;;;;11.48;3.97;;;;;;;13.15;50.22;94875.97;2972647;39;20061;-82
2021/05/11 05:02:22;;;;;;;5.95;3.60;;;;;;;13.38;49.65;94874.25;2975315;39;20055;-81
2021/05/11 05:04:24;;;;;;;6.80;3.47;;;;;;;13.63;49.10;94869.66;2975774;39;20063;-84
2021/05/11 05:06:28;;;;;;;8.75;3.45;;;;;;;13.77;48.44;94868.09;2972323;39;20128;-80
2021/05/11 05:08:29;;;;;;;5.28;3.33;;;;;;;13.78;48.48;94861.81;2972989;39;20044;-82
2021/05/11 05:10:31;;;;;;;7.30;3.72;;;;;;;13.56;49.13;94871.34;2969086;39;20293;-83
2021/05/11 05:12:33;;;;;;;7.25;3.35;;;;;;;13.67;48.83;94870.13;2968342;40;20063;-81
2021/05/11 05:14:36;;;;;;;7.85;3.95;;;;;;;13.86;48.23;94874.94;2976107;39;20052;-82
2021/05/11 05:16:38;;;;;;;6.05;3.40;;;;;;;14.02;48.01;94863.47;2969247;39;20111;-81
2021/05/11 05:18:39;;;;;;;7.45;3.55;;;;;;;13.78;48.28;94871.56;2974342;39;20057;-82
2021/05/11 05:20:41;;;;;;;9.18;4.07;;;;;;;13.74;48.43;94871.06;2968921;40;20052;-82
2021/05/11 05:22:43;;;;;;;7.93;3.58;;;;;;;13.82;47.95;94875.47;2974054;39;20048;-82
2021/05/11 05:24:52;;;;;;;7.38;3.95;;;;;;;14.05;47.89;94865.78;2970006;40;20447;-82
2021/05/11 05:26:55;;;;;;;6.53;3.55;;;;;;;14.13;47.35;94868.34;2970536;40;20082;-84
2021/05/11 05:28:58;;;;;;;;;;;;;;;14.30;47.52;94862.91;2974103;39;20063;-81
2021/05/11 05:31:03;;;;;;;12.70;4.03;;;;;;;14.20;47.12;94865.81;2968411;40;19935;-81
2021/05/11 05:33:05;;;;;;;5.15;4.05;;;;;;;13.74;48.26;94868.44;2969461;40;20044;-83
2021/05/11 05:35:07;;;;;;;5.40;3.65;;;;;;;13.79;48.43;94873.19;2977476;39;20420;-82
2021/05/11 05:37:09;;;;;;;10.23;3.85;;;;;;;13.72;48.08;94867.78;2977300;39;20426;-80
2021/05/11 05:39:11;;;;;;;8.40;3.63;;;;;;;13.80;48.16;94866.94;2976683;39;20374;-80
2021/05/11 05:41:20;;;;;;;5.25;3.55;;;;;;;13.78;48.41;94866.28;2980411;39;20355;-80
2021/05/11 05:43:23;;;;;;;8.55;3.72;;;;;;;13.91;48.09;94853.34;2972799;39;20117;-82
2021/05/11 05:45:24;;;;;;;12.23;3.42;;;;;;;14.18;47.27;94853.81;2969644;39;20121;-72
2021/05/11 05:47:26;;;;;;;9.27;4.47;;;;;;;14.17;47.80;94860.88;2967823;40;20071;-70
2021/05/11 05:49:33;;;;;;;11.20;3.92;;;;;;;14.16;47.32;94854.00;2973400;39;20286;-70
2021/05/11 05:51:35;;;;;;;10.10;4.10;;;;;;;14.29;47.51;94853.41;2967408;39;20401;-70
2021/05/11 05:53:42;;;;;;;8.85;3.92;;;;;;;14.53;46.84;94857.63;2965978;40;20064;-70
2021/05/11 05:55:44;;;;;;;9.35;4.55;;;;;;;14.51;47.13;94862.25;2973871;39;20068;-70
2021/05/11 05:57:45;;;;;;;16.17;4.63;;;;;;;14.68;46.86;94861.13;2967279;40;20060;-71
2021/05/11 05:59:47;;;;;;;7.55;3.83;;;;;;;14.89;46.45;94860.41;2968192;40;20365;-69
2021/05/11 06:01:52;;;;;;;12.68;4.80;;;;;;;14.96;46.24;94865.78;2966733;40;20491;-69
2021/05/11 06:04:21;;;;;;;10.20;5.15;;;;;;;14.79;46.54;94857.22;2972989;39;20067;-70
2021/05/11 06:06:23;;;;;;;10.85;5.35;;;;;;;14.68;46.46;94860.31;2971920;39;20067;-71
2021/05/11 06:08:28;;;;;;;12.90;4.68;;;;;;;14.65;46.64;94853.59;2973920;39;20085;-70
2021/05/11 06:10:30;;;;;;;10.07;5.22;;;;;;;14.71;46.69;94862.56;2971291;39;20161;-70
2021/05/11 06:12:48;;;;;;;10.10;4.47;;;;;;;14.81;46.30;94855.22;2970047;40;20052;-80
2021/05/11 06:19:15;;;;;;;8.43;3.88;;;;;;;15.31;45.49;94855.47;2970576;39;20055;-71
2021/05/11 06:21:17;;;;;;;7.13;4.50;;;;;;;14.91;45.88;94857.59;2968046;39;20063;-71
2021/05/11 06:23:19;;;;;;;10.85;4.43;;;;;;;14.67;46.96;94848.94;2973075;39;20068;-69
2021/05/11 06:25:21;;;;;;;14.02;4.30;;;;;;;14.90;47.75;94850.69;2971228;39;20476;-71
2021/05/11 06:27:22;;;;;;;7.57;4.00;;;;;;;15.29;46.22;94847.75;2967541;40;20416;-71
2021/05/11 06:29:27;;;;;;;7.07;3.58;;;;;;;15.42;45.69;94841.78;2971716;39;20047;-69
2021/05/11 06:31:29;;;;;;;9.82;3.80;;;;;;;15.51;45.40;94842.53;2960897;40;20067;-70
2021/05/11 06:33:31;;;;;;;6.40;3.85;;;;;;;15.80;44.96;94844.28;2974117;39;20052;-70
2021/05/11 06:35:34;;;;;;;18.25;6.32;;;;;;;15.96;45.13;94844.03;2967835;40;20097;-71
2021/05/11 06:37:36;;;;;;;8.70;4.43;;;;;;;16.16;44.55;94841.56;2967333;40;20056;-71
2021/05/11 06:39:42;;;;;;;7.95;3.72;;;;;;;16.29;43.88;94843.53;2967166;40;20080;-70
2021/05/11 06:41:48;;;;;;;8.38;3.58;;;;;;;16.44;44.13;94840.78;2972491;39;20091;-70
2021/05/11 06:43:56;;;;;;;5.60;4.20;;;;;;;16.68;43.54;94839.53;2975314;39;20100;-81
2021/05/11 06:48:18;;;;;;;9.75;3.95;;;;;;;17.02;42.76;94837.94;2977149;39;20390;-81
2021/05/11 06:50:42;;;;;;;7.25;3.83;;;;;;;16.97;42.49;94835.06;2977924;39;20048;-82
2021/05/11 06:52:55;;;;;;;5.00;3.58;;;;;;;17.12;42.28;94843.72;2971749;40;20052;-81
2021/05/11 06:54:57;;;;;;;7.07;4.00;;;;;;;17.32;42.05;94835.03;2976489;39;20053;-83
2021/05/11 06:56:58;;;;;;;8.82;3.72;;;;;;;17.46;41.42;94841.19;2972662;39;20448;-81
2021/05/11 06:59:00;;;;;;;8.10;4.15;;;;;;;17.54;40.88;94830.44;2970563;39;20071;-84
2021/05/11 07:01:02;;;;;;;6.75;3.80;;;;;;;17.67;41.36;94829.66;2969293;40;20138;-83
2021/05/11 07:03:04;;;;;;;19.52;4.10;;;;;;;17.75;41.07;94825.00;2966227;40;20406;-84
2021/05/11 07:05:06;;;;;;;8.57;4.63;;;;;;;17.67;40.89;94822.53;2976493;39;20055;-84
2021/05/11 07:07:11;;;;;;;9.13;5.50;;;;;;;17.72;40.65;94817.44;2972312;39;20137;-81
2021/05/11 07:10:14;;;;;;;9.45;4.13;;;;;;;17.63;41.37;94825.78;2968466;40;20052;-84
2021/05/11 07:13:47;;;;;;;10.25;4.60;;;;;;;17.17;42.97;94822.75;2973045;39;20055;-83
2021/05/11 07:15:50;;;;;;;11.23;4.07;;;;;;;17.31;42.12;94820.16;2963741;40;20422;-81
2021/05/11 07:18:07;;;;;;;6.38;4.30;;;;;;;17.51;41.95;94820.22;2969372;40;20125;-84
2021/05/11 07:20:10;;;;;;;7.95;4.03;;;;;;;17.71;41.45;94828.25;2969333;40;20092;-84
2021/05/11 07:22:11;;;;;;;6.32;4.40;;;;;;;17.61;41.13;94818.81;2968942;40;20048;-82
2021/05/11 07:24:14;;;;;;;12.00;4.63;;;;;;;17.57;41.24;94822.06;2970132;40;20096;-83
2021/05/11 07:30:33;;;;;;;6.43;4.32;;;;;;;17.45;41.38;94818.38;2967677;40;20050;-79
2021/05/11 07:32:37;;;;;;;8.20;4.38;;;;;;;17.04;42.04;94814.75;2971301;40;20108;-82
2021/05/11 07:34:43;;;;;;;10.60;5.38;;;;;;;17.15;42.44;94806.25;2976533;39;20095;-84
2021/05/11 07:36:46;;;;;;;9.73;4.15;;;;;;;17.20;42.30;94805.66;2971367;39;20067;-83
2021/05/11 07:38:49;;;;;;;6.28;4.15;;;;;;;17.45;42.16;94808.59;2969393;40;20209;-82
2021/05/11 07:40:52;;;;;;;9.27;4.65;;;;;;;17.78;41.65;94810.53;2976001;39;20044;-81
2021/05/11 07:42:54;;;;;;;10.73;4.03;;;;;;;18.12;40.99;94804.28;2976062;39;20089;-83
2021/05/11 07:44:59;;;;;;;11.45;6.05;;;;;;;18.11;41.04;94794.72;2976597;39;20109;-81
2021/05/11 07:47:27;;;;;;;7.82;4.43;;;;;;;18.11;40.74;94796.53;2971531;39;20063;-83
2021/05/11 08:05:18;;;;;;;7.40;5.10;;;;;;;19.51;37.98;94782.97;2972460;39;20065;-82
2021/05/11 08:10:00;;;;;;;9.25;3.92;;;;;;;19.18;39.55;94771.47;2973558;39;20139;-81
2021/05/11 08:14:31;;;;;;;6.55;4.50;;;;;;;18.58;40.02;94768.13;2969232;39;20091;-82
2021/05/11 08:16:33;;;;;;;8.00;3.53;;;;;;;18.93;39.74;94762.56;2971417;39;20067;-83
2021/05/11 08:18:49;;;;;;;7.68;3.67;;;;;;;18.95;39.17;94765.84;2977317;39;20052;-81
2021/05/11 08:23:36;;;;;;;6.75;4.15;;;;;;;19.29;38.13;94766.53;2973828;39;20136;-81
2021/05/11 08:28:00;;;;;;;5.88;4.03;;;;;;;19.57;37.65;94764.31;2971983;39;20056;-83
2021/05/11 08:30:03;;;;;;;4.50;3.50;;;;;;;19.79;37.48;94762.22;2974165;39;20344;-81
2021/05/11 08:32:04;;;;;;;14.90;5.13;;;;;;;19.71;37.92;94759.00;2968948;39;20306;-85
2021/05/11 08:34:07;;;;;;;6.88;3.67;;;;;;;19.89;37.69;94761.72;2969555;40;20095;-83
2021/05/11 08:36:08;;;;;;;9.05;3.55;;;;;;;19.91;37.98;94751.69;2973644;39;20060;-81
2021/05/11 08:38:10;;;;;;;6.00;3.55;;;;;;;19.62;37.14;94750.44;2971391;39;20106;-82
2021/05/11 08:40:13;;;;;;;12.70;3.72;;;;;;;19.54;38.09;94754.13;2967864;40;20048;-85
2021/05/11 08:42:15;;;;;;;8.00;3.42;;;;;;;19.89;37.33;94753.75;2966807;40;20397;-82
2021/05/11 08:44:17;;;;;;;5.75;3.10;;;;;;;20.21;36.77;94751.03;2967723;39;20060;-82
2021/05/11 08:46:19;;;;;;;10.98;4.07;;;;;;;20.27;37.03;94747.53;2971800;40;20059;-82
2021/05/11 08:48:22;;;;;;;7.43;3.42;;;;;;;20.08;36.81;94753.81;2976434;39;20140;-84
2021/05/11 09:24:57;;;;;;;7.30;3.33;;;;;;;21.77;33.20;94721.44;2966898;40;20152;-70
2021/05/11 09:27:14;;;;;;;7.00;3.30;;;;;;;21.85;32.82;94713.13;2968151;40;20326;-70
2021/05/11 09:30:04;;;;;;;6.78;2.60;;;;;;;21.67;32.78;94708.69;2968297;39;20385;-72
2021/05/11 09:32:03;;;;;;;6.00;2.90;;;;;;;21.76;32.27;94703.81;2967170;39;20102;-69
2021/05/11 09:34:17;;;;;;;8.95;3.33;;;;;;;22.01;32.29;94707.13;2969032;39;20345;-71
2021/05/11 09:55:44;;;;;;;15.35;6.88;;;;;;;22.69;26.87;94699.59;2971768;39;20489;-83
2021/05/11 09:58:32;;;;;;;4.47;1.70;;;;;;;22.67;26.96;94691.00;2971664;39;20373;-71
2021/05/11 10:01:09;;;;;;;8.57;2.13;;;;;;;22.74;25.85;94696.25;2964489;40;20100;-70
2021/05/11 10:32:08;;;;;;;17.17;2.88;;;;;;;23.67;25.70;94670.25;2971656;40;20132;-84
2021/05/11 10:41:34;;;;;;;3.90;1.45;;;;;;;23.94;25.41;94643.72;2976836;39;20051;-82
2021/05/11 10:48:44;;;;;;;4.38;1.13;;;;;;;24.09;24.18;94654.66;2971838;39;20059;-83
2021/05/11 10:50:54;;;;;;;2.30;1.00;;;;;;;23.96;23.72;94652.28;2969737;40;20052;-82
2021/05/11 10:52:56;;;;;;;3.38;0.90;;;;;;;23.90;24.71;94648.75;2970182;40;20064;-81
2021/05/11 10:55:11;;;;;;;1.88;0.70;;;;;;;23.99;21.34;94641.13;2971705;39;20590;-70
2021/05/11 10:59:54;;;;;;;3.15;1.00;;;;;;;24.34;24.40;94637.34;2969393;39;20091;-83
2021/05/11 11:02:01;;;;;;;1.83;0.95;;;;;;;24.51;24.56;94640.81;2973061;40;20076;-83
2021/05/11 11:04:15;;;;;;;5.20;1.35;;;;;;;24.48;23.98;94632.47;2972008;39;20059;-83
2021/05/11 11:06:18;;;;;;;3.92;1.77;;;;;;;24.44;24.30;94626.78;2973877;39;20089;-81
2021/05/11 11:08:47;;;;;;;2.60;1.10;;;;;;;24.10;23.67;94623.34;2972476;39;20133;-84
2021/05/11 11:10:49;;;;;;;2.78;1.20;;;;;;;24.11;23.57;94625.78;2971793;39;20102;-82
2021/05/11 11:12:51;;;;;;;1.92;0.90;;;;;;;24.28;23.34;94627.59;2971005;39;20418;-82
2021/05/11 11:14:53;;;;;;;3.58;1.02;;;;;;;24.28;23.47;94624.94;2973388;39;20092;-83
2021/05/11 11:16:59;;;;;;;4.40;1.30;;;;;;;24.14;23.86;94616.47;2971376;39;20052;-83
2021/05/11 11:19:08;;;;;;;6.13;1.02;;;;;;;23.87;24.87;94617.09;2972856;39;20686;-82
2021/05/11 11:23:48;;;;;;;7.05;1.20;;;;;;;23.71;25.04;94618.72;2966487;40;20086;-81
2021/05/11 11:26:03;;;;;;;1.98;0.85;;;;;;;23.69;25.36;94606.63;2970552;39;20381;-82
2021/05/11 11:28:05;;;;;;;1.67;1.00;;;;;;;24.00;25.60;94607.13;2968698;39;20064;-83
2021/05/11 11:30:10;;;;;;;3.75;1.00;;;;;;;24.14;25.56;94603.06;2969160;39;20053;-82
2021/05/11 11:32:21;;;;;;;2.28;0.82;;;;;;;24.15;24.34;94601.19;2968124;40;20071;-85
2021/05/11 11:34:31;;;;;;;5.15;1.00;;;;;;;24.30;25.29;94601.41;2967119;40;20072;-79
2021/05/11 11:36:33;;;;;;;2.50;1.20;;;;;;;24.53;24.47;94603.09;2973977;39;20120;-80
2021/05/11 11:38:35;;;;;;;3.88;1.08;;;;;;;24.47;24.07;94598.69;2969131;39;20067;-81
2021/05/11 11:40:37;;;;;;;1.30;0.98;;;;;;;24.47;23.39;94599.50;2967581;39;20121;-82
2021/05/11 11:42:41;;;;;;;1.35;0.80;;;;;;;24.58;23.63;94596.97;2972537;39;20053;-83
2021/05/11 11:44:43;;;;;;;1.33;0.90;;;;;;;24.70;24.15;94595.00;2971339;40;20062;-82
2021/05/11 11:47:11;;;;;;;3.97;0.93;;;;;;;24.53;23.10;94595.06;2969966;39;20044;-84
2021/05/11 11:49:17;;;;;;;4.40;0.85;;;;;;;24.44;23.12;94593.84;2968097;40;20123;-83
2021/05/11 11:51:26;;;;;;;1.38;0.77;;;;;;;24.55;23.38;94584.09;2968212;40;20482;-73
2021/05/11 11:53:32;;;;;;;2.03;0.80;;;;;;;24.66;23.35;94588.53;2966529;40;20044;-71
2021/05/11 11:55:57;;;;;;;2.78;1.13;;;;;;;24.75;23.57;94578.97;2966295;40;20461;-69
2021/05/11 11:57:59;;;;;;;5.30;2.05;;;;;;;24.67;24.37;94582.09;2967057;40;20414;-71
2021/05/11 12:00:01;;;;;;;3.28;1.15;;;;;;;24.75;24.82;94586.22;2967902;40;20301;-72
2021/05/11 12:02:04;;;;;;;2.75;0.95;;;;;;;24.70;24.99;94576.25;2971092;39;20052;-70
2021/05/11 12:04:06;;;;;;;1.80;1.00;;;;;;;24.76;25.45;94582.47;2968199;39;20060;-71
2021/05/11 12:06:08;;;;;;;2.67;1.13;;;;;;;24.90;24.55;94567.63;2969552;39;20113;-72
2021/05/11 12:08:28;;;;;;;2.03;1.15;;;;;;;24.89;24.44;94574.84;2972278;40;20492;-72
2021/05/11 12:10:31;;;;;;;4.53;1.33;;;;;;;24.66;24.15;94569.78;2968698;39;20048;-72
2021/05/11 12:12:35;;;;;;;2.78;1.00;;;;;;;24.90;24.94;94563.06;2968841;39;20068;-70
2021/05/11 12:14:52;;;;;;;1.98;0.90;;;;;;;25.07;24.71;94564.84;2972284;39;20053;-71
2021/05/11 12:16:54;;;;;;;6.05;1.02;;;;;;;25.22;24.73;94551.63;2971010;39;20082;-72
2021/05/11 12:19:06;;;;;;;1.90;1.10;;;;;;;25.32;25.16;94558.97;2966851;40;20061;-73
2021/05/11 12:21:10;;;;;;;10.80;1.30;;;;;;;25.42;24.33;94553.66;2966970;40;20044;-72
2021/05/11 12:23:18;;;;;;;1.35;0.85;;;;;;;25.54;24.64;94542.78;2971087;39;20079;-72
2021/05/11 12:25:23;;;;;;;2.83;0.98;;;;;;;25.41;24.68;94551.25;2966965;40;20083;-71
2021/05/11 12:27:25;;;;;;;1.70;1.00;;;;;;;25.24;23.96;94546.00;2970831;39;20410;-73
2021/05/11 12:29:27;;;;;;;5.78;1.15;;;;;;;25.17;23.84;94545.38;2967028;40;20212;-73
2021/05/11 12:31:38;;;;;;;0.98;0.65;;;;;;;25.23;23.24;94536.34;2966849;40;20145;-72
2021/05/11 12:33:42;;;;;;;2.38;1.00;;;;;;;24.96;22.23;94539.03;2967406;39;20055;-72
2021/05/11 12:35:44;;;;;;;5.10;0.77;;;;;;;24.94;22.20;94531.22;2969324;39;20051;-70
2021/05/11 12:37:50;;;;;;;1.75;1.05;;;;;;;24.67;22.51;94520.47;2970593;39;20092;-71
2021/05/11 12:39:54;;;;;;;4.90;1.23;;;;;;;24.75;23.14;94519.25;2966851;40;20411;-71
2021/05/11 12:42:21;;;;;;;1.60;0.82;;;;;;;24.75;23.23;94521.91;2972969;40;20055;-72
2021/05/11 12:44:28;;;;;;;2.03;1.10;;;;;;;24.79;23.22;94517.69;2967103;40;20056;-70
2021/05/11 12:46:31;;;;;;;4.93;0.93;;;;;;;24.83;23.26;94513.44;2965554;40;20378;-70
2021/05/11 12:48:33;;;;;;;2.65;0.80;;;;;;;25.00;23.52;94507.97;2970721;39;20051;-73
2021/05/11 12:50:40;;;;;;;4.22;1.08;;;;;;;25.13;23.47;94504.88;2973920;39;20054;-72
2021/05/11 12:52:42;;;;;;;3.65;0.80;;;;;;;25.05;23.06;94510.69;2973661;39;20149;-71
2021/05/11 12:54:47;;;;;;;5.35;1.25;;;;;;;25.06;23.64;94510.44;2970443;39;20064;-72
2021/05/11 12:59:14;;;;;;;1.30;0.80;;;;;;;25.16;24.91;94512.41;2968053;39;20369;-70
2021/05/11 13:01:26;;;;;;;7.32;1.20;;;;;;;25.32;25.55;94506.16;2973342;39;20064;-70
2021/05/11 13:04:10;;;;;;;2.47;1.00;;;;;;;25.45;26.28;94504.91;2962320;40;20049;-72
2021/05/11 13:17:26;;;;;;;9.70;2.28;;;;;;;25.47;26.40;94496.63;2971199;39;20068;-71
2021/05/11 13:22:03;;;;;;;7.25;1.83;;;;;;;25.41;25.95;94500.31;2966661;40;20044;-71
2021/05/11 13:26:27;;;;;;;5.28;2.08;;;;;;;25.41;25.85;94487.72;2972319;39;20048;-72